Time;durP1;ratioP1;P1;durP2;ratioP2;P2;SDS_P1;SDS_P2;PMS_P1;PMS_P2;Temp;Humidity;BMP_temperature;BMP_pressure;BME280_temperature;BME280_humidity;BME280_pressure;Samples;Min_cycle;Max_cycle;Signal;HPM_P1;HPM_P2
2021/08/06 00:00:57;;;;;;;2.80;1.90;;;;;;;;;;5005276;28;20511;-81
2021/08/06 00:03:23;;;;;;;3.03;2.00;;;;;;;;;;5013406;28;20458;-81
2021/08/06 00:05:50;;;;;;;4.32;2.60;;;;;;;;;;5029905;28;20048;-81
2021/08/06 00:08:15;;;;;;;3.72;2.22;;;;;;;;;;5029765;28;20048;-81
2021/08/06 00:10:41;;;;;;;3.72;2.10;;;;;;;;;;5021592;28;20426;-81
2021/08/06 00:13:06;;;;;;;2.72;1.83;;;;;;;;;;5015824;28;20037;-81
2021/08/06 00:15:32;;;;;;;2.42;1.73;;;;;;;;;;4999843;28;20105;-81
2021/08/06 00:17:57;;;;;;;3.97;2.08;;;;;;;;;;5004800;28;20046;-81
2021/08/06 00:20:23;;;;;;;3.92;1.60;;;;;;;;;;5013367;28;20045;-81
2021/08/06 00:22:49;;;;;;;2.35;1.65;;;;;;;;;;5021530;28;20083;-81
2021/08/06 00:25:14;;;;;;;3.92;1.80;;;;;;;;;;5016612;28;20036;-81
2021/08/06 00:27:40;;;;;;;5.50;1.73;;;;;;;;;;5015854;28;20037;-81
2021/08/06 00:30:05;;;;;;;2.40;1.40;;;;;;;;;;5017008;28;20045;-81
2021/08/06 00:32:31;;;;;;;2.88;1.70;;;;;;;;;;5002998;28;20461;-81
2021/08/06 00:34:57;;;;;;;2.63;1.60;;;;;;;;;;5018139;28;20061;-81
2021/08/06 00:37:23;;;;;;;2.47;1.45;;;;;;;;;;5019783;28;20487;-81
2021/08/06 00:39:48;;;;;;;2.22;1.60;;;;;;;;;;5019867;28;20082;-81
2021/08/06 00:42:14;;;;;;;2.30;1.50;;;;;;;;;;5018959;28;20148;-82
2021/08/06 00:44:39;;;;;;;2.92;1.70;;;;;;;;;;5002900;28;20034;-82
2021/08/06 00:47:05;;;;;;;2.30;1.45;;;;;;;;;;5011256;28;20100;-81
2021/08/06 00:49:30;;;;;;;2.78;1.65;;;;;;;;;;5018826;28;20043;-81
2021/08/06 00:51:56;;;;;;;3.00;1.60;;;;;;;;;;5019555;28;20098;-81
2021/08/06 00:54:23;;;;;;;2.85;1.30;;;;;;;;;;4992438;28;20034;-81
2021/08/06 00:56:49;;;;;;;4.20;1.88;;;;;;;;;;5016524;28;20091;-81
2021/08/06 00:59:15;;;;;;;2.05;1.20;;;;;;;;;;5014856;28;20520;-83
2021/08/06 01:01:40;;;;;;;2.28;1.70;;;;;;;;;;5029367;28;20480;-79
2021/08/06 01:04:06;;;;;;;2.15;1.17;;;;;;;;;;4994594;28;20030;-79
2021/08/06 01:06:46;;;;;;;3.45;1.35;;;;;;;;;;5013129;28;20049;-79
2021/08/06 01:09:17;;;;;;;2.33;1.60;;;;;;;;;;5030252;28;20514;-79
2021/08/06 01:11:43;;;;;;;2.95;1.70;;;;;;;;;;5032717;28;20041;-80
2021/08/06 01:14:15;;;;;;;3.50;1.75;;;;;;;;;;5013311;28;20045;-80
2021/08/06 01:16:40;;;;;;;;;;;;;;;;;;5018211;28;20743;-79
2021/08/06 01:19:21;;;;;;;1.73;1.17;;;;;;;;;;5018602;28;19920;-80
2021/08/06 01:21:49;;;;;;;3.42;1.65;;;;;;;;;;5053336;28;20040;-79
2021/08/06 01:24:17;;;;;;;1.88;1.20;;;;;;;;;;5018761;28;20490;-80
2021/08/06 01:26:42;;;;;;;2.83;1.40;;;;;;;;;;4996493;28;20036;-80
2021/08/06 01:29:08;;;;;;;3.30;1.65;;;;;;;;;;5028455;28;20037;-79
2021/08/06 01:31:34;;;;;;;1.65;1.10;;;;;;;;;;5015984;28;20045;-80
2021/08/06 01:33:59;;;;;;;2.22;1.40;;;;;;;;;;5015676;28;20049;-80
2021/08/06 01:36:25;;;;;;;3.10;1.52;;;;;;;;;;5049106;28;20036;-80
2021/08/06 01:38:51;;;;;;;3.42;1.50;;;;;;;;;;5013939;28;20415;-80
2021/08/06 01:41:54;;;;;;;2.08;1.40;;;;;;;;;;5023498;28;20064;-81
2021/08/06 01:44:36;;;;;;;2.15;1.33;;;;;;;;;;5048612;28;20037;-81
2021/08/06 01:47:14;;;;;;;2.15;1.20;;;;;;;;;;5003786;28;20028;-83
2021/08/06 01:49:50;;;;;;;2.20;1.40;;;;;;;;;;5015124;28;20041;-83
2021/08/06 01:52:19;;;;;;;2.42;1.30;;;;;;;;;;5015681;28;20053;-82
2021/08/06 01:54:44;;;;;;;1.77;1.27;;;;;;;;;;5015271;28;20045;-83
2021/08/06 01:57:10;;;;;;;3.55;1.10;;;;;;;;;;5023605;28;20037;-83
2021/08/06 01:59:35;;;;;;;2.25;1.30;;;;;;;;;;5015589;28;20041;-82
2021/08/06 02:02:01;;;;;;;2.50;1.20;;;;;;;;;;5018186;28;20027;-82
2021/08/06 02:04:27;;;;;;;2.72;1.40;;;;;;;;;;5001422;28;20032;-82
2021/08/06 02:06:52;;;;;;;3.05;1.58;;;;;;;;;;5017800;28;20044;-81
2021/08/06 02:09:18;;;;;;;1.55;1.02;;;;;;;;;;5016463;28;20119;-80
2021/08/06 02:11:44;;;;;;;2.30;1.40;;;;;;;;;;5017563;28;20036;-81
2021/08/06 02:14:12;;;;;;;2.60;1.50;;;;;;;;;;5034520;28;20037;-82
2021/08/06 02:16:40;;;;;;;1.77;1.17;;;;;;;;;;4982641;28;20103;-82
2021/08/06 02:19:05;;;;;;;2.33;1.20;;;;;;;;;;5009538;28;20499;-82
2021/08/06 02:21:32;;;;;;;2.30;1.50;;;;;;;;;;5017576;28;20044;-82
2021/08/06 02:24:01;;;;;;;3.85;1.33;;;;;;;;;;4999642;28;20547;-81
2021/08/06 02:26:26;;;;;;;1.88;1.20;;;;;;;;;;4995336;28;20037;-82
2021/08/06 02:28:52;;;;;;;2.28;1.30;;;;;;;;;;5005588;28;20041;-82
2021/08/06 02:31:18;;;;;;;2.40;1.35;;;;;;;;;;5018216;28;20039;-82
2021/08/06 02:33:43;;;;;;;1.70;1.10;;;;;;;;;;4998086;28;20068;-82
2021/08/06 02:36:09;;;;;;;2.05;1.10;;;;;;;;;;4994170;28;20109;-81
2021/08/06 02:38:34;;;;;;;2.15;1.35;;;;;;;;;;4998178;28;20047;-81
2021/08/06 02:41:00;;;;;;;2.45;1.27;;;;;;;;;;5022603;28;20047;-81
2021/08/06 02:43:26;;;;;;;2.00;1.15;;;;;;;;;;5014649;28;20395;-82
2021/08/06 02:45:52;;;;;;;2.00;1.20;;;;;;;;;;5031023;28;20037;-81
2021/08/06 02:48:17;;;;;;;2.53;1.50;;;;;;;;;;5042665;28;20041;-81
2021/08/06 02:50:43;;;;;;;2.55;1.42;;;;;;;;;;4993733;28;20037;-81
2021/08/06 02:53:09;;;;;;;2.38;1.20;;;;;;;;;;5013522;28;20041;-80
2021/08/06 02:55:34;;;;;;;1.95;0.88;;;;;;;;;;5014332;28;20102;-80
2021/08/06 02:58:00;;;;;;;1.77;1.13;;;;;;;;;;5014239;28;20107;-80
2021/08/06 03:00:25;;;;;;;2.05;1.10;;;;;;;;;;5015345;28;20038;-81
2021/08/06 03:02:51;;;;;;;2.42;1.20;;;;;;;;;;5015262;28;20026;-79
2021/08/06 03:05:16;;;;;;;1.50;0.80;;;;;;;;;;5013722;28;20645;-80
2021/08/06 03:07:51;;;;;;;3.00;1.23;;;;;;;;;;5044151;28;20037;-80
2021/08/06 03:10:20;;;;;;;3.03;1.10;;;;;;;;;;5016632;28;20084;-80
2021/08/06 03:12:46;;;;;;;2.13;1.10;;;;;;;;;;5016241;28;20041;-80
2021/08/06 03:15:12;;;;;;;1.73;1.30;;;;;;;;;;5015917;28;20120;-80
2021/08/06 03:17:40;;;;;;;2.00;1.00;;;;;;;;;;5030687;28;20034;-80
2021/08/06 03:20:10;;;;;;;2.40;1.35;;;;;;;;;;5013635;28;20542;-80
2021/08/06 03:22:37;;;;;;;1.83;1.02;;;;;;;;;;5025511;28;20064;-80
2021/08/06 03:25:04;;;;;;;1.70;0.93;;;;;;;;;;5000583;28;20036;-80
2021/08/06 03:27:31;;;;;;;1.67;0.93;;;;;;;;;;5016725;28;20051;-80
2021/08/06 03:29:56;;;;;;;1.98;0.68;;;;;;;;;;5006322;28;20534;-80
2021/08/06 03:32:22;;;;;;;1.45;0.82;;;;;;;;;;5034828;28;20029;-80
2021/08/06 03:34:48;;;;;;;2.42;1.08;;;;;;;;;;4993896;28;20041;-80
2021/08/06 03:37:14;;;;;;;1.52;1.13;;;;;;;;;;5043949;28;20040;-80
2021/08/06 03:39:39;;;;;;;2.15;0.98;;;;;;;;;;5033526;28;20041;-80
2021/08/06 03:42:05;;;;;;;1.80;0.90;;;;;;;;;;5016562;28;20045;-80
2021/08/06 03:44:30;;;;;;;2.83;1.38;;;;;;;;;;4998564;28;20072;-80
2021/08/06 03:46:56;;;;;;;1.42;0.75;;;;;;;;;;5011644;28;20045;-80
2021/08/06 03:49:21;;;;;;;1.63;0.65;;;;;;;;;;5013231;28;20063;-81
2021/08/06 03:51:47;;;;;;;1.80;0.85;;;;;;;;;;5016471;28;20028;-81
2021/08/06 03:54:12;;;;;;;1.55;0.82;;;;;;;;;;4997887;28;20033;-81
2021/08/06 03:56:38;;;;;;;1.45;0.70;;;;;;;;;;5007596;28;20037;-81
2021/08/06 03:59:03;;;;;;;1.33;0.80;;;;;;;;;;5016277;28;20105;-80
2021/08/06 04:01:29;;;;;;;1.17;0.80;;;;;;;;;;5006978;28;20434;-80
2021/08/06 04:03:54;;;;;;;2.40;0.90;;;;;;;;;;5025063;28;20037;-80
2021/08/06 04:06:20;;;;;;;1.42;0.68;;;;;;;;;;5035988;28;20108;-80
2021/08/06 04:08:45;;;;;;;1.30;0.60;;;;;;;;;;5009457;28;20041;-80
2021/08/06 04:11:10;;;;;;;1.85;0.70;;;;;;;;;;5017285;28;20025;-80
2021/08/06 04:13:36;;;;;;;1.25;0.70;;;;;;;;;;5035040;28;20083;-80
2021/08/06 04:16:01;;;;;;;1.20;0.70;;;;;;;;;;5014593;28;20397;-80
2021/08/06 04:18:27;;;;;;;0.60;0.40;;;;;;;;;;5030614;28;20045;-80
2021/08/06 04:20:53;;;;;;;0.95;0.60;;;;;;;;;;5017392;28;20107;-79
2021/08/06 04:23:19;;;;;;;1.30;0.60;;;;;;;;;;5013817;28;20033;-80
2021/08/06 04:25:44;;;;;;;1.45;0.45;;;;;;;;;;5016251;28;20095;-80
2021/08/06 04:28:10;;;;;;;2.05;1.23;;;;;;;;;;5016795;28;20052;-80
2021/08/06 04:30:35;;;;;;;1.92;0.73;;;;;;;;;;5017321;28;20045;-79
2021/08/06 04:33:01;;;;;;;1.15;0.50;;;;;;;;;;5016544;28;20415;-80
2021/08/06 04:35:26;;;;;;;1.10;0.50;;;;;;;;;;5015502;28;20699;-79
2021/08/06 04:37:52;;;;;;;1.13;0.50;;;;;;;;;;5035833;28;20068;-80
2021/08/06 04:40:18;;;;;;;2.03;0.60;;;;;;;;;;5019957;28;20029;-80
2021/08/06 04:42:44;;;;;;;1.30;0.60;;;;;;;;;;5019173;28;20491;-80
2021/08/06 04:45:10;;;;;;;1.27;0.80;;;;;;;;;;5015504;28;20132;-80
2021/08/06 04:47:41;;;;;;;1.88;0.65;;;;;;;;;;5013027;28;20080;-80
2021/08/06 04:50:06;;;;;;;1.45;0.70;;;;;;;;;;4997132;28;20117;-80
2021/08/06 04:52:32;;;;;;;1.67;0.50;;;;;;;;;;5012446;28;20049;-80
2021/08/06 04:54:57;;;;;;;0.85;0.45;;;;;;;;;;5033017;28;20175;-79
2021/08/06 04:57:23;;;;;;;2.05;0.52;;;;;;;;;;5013459;28;20045;-79
2021/08/06 04:59:48;;;;;;;1.58;0.40;;;;;;;;;;5014379;28;20041;-79
2021/08/06 05:02:14;;;;;;;0.55;0.30;;;;;;;;;;5044768;28;20492;-79
2021/08/06 05:04:39;;;;;;;1.20;0.60;;;;;;;;;;5019351;28;20039;-80
2021/08/06 05:07:05;;;;;;;1.30;0.52;;;;;;;;;;5016620;28;20060;-80
2021/08/06 05:09:30;;;;;;;1.30;0.60;;;;;;;;;;5033417;28;20067;-80
2021/08/06 05:11:56;;;;;;;1.33;0.60;;;;;;;;;;5014508;28;20068;-79
2021/08/06 05:14:21;;;;;;;1.40;0.60;;;;;;;;;;5012911;28;20046;-79
2021/08/06 05:16:48;;;;;;;2.83;0.50;;;;;;;;;;5012053;28;20489;-80
2021/08/06 05:19:13;;;;;;;0.80;0.40;;;;;;;;;;5018515;28;20083;-79
2021/08/06 05:21:40;;;;;;;1.17;0.52;;;;;;;;;;5019022;28;20032;-80
2021/08/06 05:24:05;;;;;;;1.02;0.50;;;;;;;;;;5002224;28;20059;-80
2021/08/06 05:26:31;;;;;;;1.58;0.75;;;;;;;;;;5018829;28;20487;-80
2021/08/06 05:28:56;;;;;;;1.13;0.50;;;;;;;;;;5017490;28;20051;-79
2021/08/06 05:31:22;;;;;;;1.13;0.40;;;;;;;;;;5007272;28;20060;-80
2021/08/06 05:33:48;;;;;;;1.58;0.80;;;;;;;;;;5012641;28;20161;-80
2021/08/06 05:36:13;;;;;;;1.23;0.60;;;;;;;;;;5014395;28;20045;-80
2021/08/06 05:38:39;;;;;;;2.13;0.73;;;;;;;;;;5013021;28;20116;-80
2021/08/06 05:41:04;;;;;;;1.35;0.50;;;;;;;;;;4996253;28;20042;-80
2021/08/06 05:43:30;;;;;;;1.33;0.30;;;;;;;;;;4999508;28;20037;-81
2021/08/06 05:45:55;;;;;;;2.13;0.60;;;;;;;;;;5012675;28;20072;-80
2021/08/06 05:48:21;;;;;;;2.15;0.60;;;;;;;;;;5029772;28;20037;-81
2021/08/06 05:50:46;;;;;;;1.75;0.40;;;;;;;;;;5012551;28;20064;-80
2021/08/06 05:53:12;;;;;;;3.10;1.00;;;;;;;;;;4996465;28;20030;-80
2021/08/06 05:55:37;;;;;;;1.38;0.50;;;;;;;;;;5019373;28;20033;-81
2021/08/06 05:58:03;;;;;;;0.90;0.50;;;;;;;;;;5007574;28;20037;-81
2021/08/06 06:00:28;;;;;;;1.67;0.70;;;;;;;;;;5015310;28;20496;-81
2021/08/06 06:02:54;;;;;;;1.63;0.50;;;;;;;;;;5028603;28;20433;-82
2021/08/06 06:05:19;;;;;;;1.33;0.57;;;;;;;;;;4999651;28;20116;-83
2021/08/06 06:07:46;;;;;;;1.85;0.50;;;;;;;;;;5018357;28;20029;-82
2021/08/06 06:10:11;;;;;;;1.27;0.60;;;;;;;;;;5017917;28;20491;-82
2021/08/06 06:12:38;;;;;;;1.50;0.60;;;;;;;;;;5012941;28;20036;-83
2021/08/06 06:15:04;;;;;;;1.15;0.45;;;;;;;;;;5029184;28;20043;-82
2021/08/06 06:17:30;;;;;;;1.40;0.40;;;;;;;;;;5015687;28;20045;-83
2021/08/06 06:19:55;;;;;;;0.60;0.40;;;;;;;;;;5027667;28;20418;-82
2021/08/06 06:22:20;;;;;;;1.58;0.70;;;;;;;;;;5009770;28;20111;-83
2021/08/06 06:24:46;;;;;;;1.67;0.50;;;;;;;;;;5009646;28;20086;-83
2021/08/06 06:27:11;;;;;;;1.58;0.65;;;;;;;;;;5016410;28;20095;-83
2021/08/06 06:29:37;;;;;;;1.38;0.40;;;;;;;;;;5000978;28;20044;-83
2021/08/06 06:32:03;;;;;;;1.67;0.57;;;;;;;;;;5015289;28;20040;-83
2021/08/06 06:34:29;;;;;;;0.88;0.43;;;;;;;;;;4998130;28;20068;-82
2021/08/06 06:36:56;;;;;;;2.67;1.27;;;;;;;;;;5033673;28;20029;-83
2021/08/06 06:39:22;;;;;;;2.30;0.50;;;;;;;;;;5017726;28;20574;-82
2021/08/06 06:41:49;;;;;;;1.23;0.50;;;;;;;;;;5017115;28;20399;-82
2021/08/06 06:44:14;;;;;;;1.50;0.57;;;;;;;;;;5001037;28;20116;-82
2021/08/06 06:46:40;;;;;;;1.42;0.80;;;;;;;;;;5006269;28;20093;-81
2021/08/06 06:49:05;;;;;;;1.60;0.52;;;;;;;;;;5017737;28;20040;-81
2021/08/06 06:51:31;;;;;;;1.88;0.60;;;;;;;;;;4992282;28;20037;-80
2021/08/06 06:53:56;;;;;;;1.33;0.50;;;;;;;;;;5013601;28;20037;-81
2021/08/06 06:56:23;;;;;;;1.52;0.40;;;;;;;;;;4996398;28;20112;-82
2021/08/06 06:58:48;;;;;;;2.20;0.65;;;;;;;;;;5016879;28;20047;-81
2021/08/06 07:01:14;;;;;;;1.38;0.60;;;;;;;;;;5012035;28;20038;-82
2021/08/06 07:03:40;;;;;;;1.60;0.63;;;;;;;;;;5008497;28;20116;-89
2021/08/06 07:06:07;;;;;;;1.73;0.70;;;;;;;;;;5007084;28;20504;-85
2021/08/06 07:08:32;;;;;;;4.45;0.80;;;;;;;;;;4996561;28;20408;-84
2021/08/06 07:10:58;;;;;;;1.80;0.70;;;;;;;;;;5012939;28;20037;-82
2021/08/06 07:13:23;;;;;;;3.13;0.73;;;;;;;;;;5022128;28;20106;-82
2021/08/06 07:15:49;;;;;;;1.90;0.70;;;;;;;;;;5014090;28;20048;-81
2021/08/06 07:18:14;;;;;;;4.93;1.58;;;;;;;;;;5003784;28;20038;-82
2021/08/06 07:20:40;;;;;;;4.68;1.00;;;;;;;;;;5032456;28;20029;-82
2021/08/06 07:23:05;;;;;;;4.78;1.02;;;;;;;;;;5032770;28;20033;-81
2021/08/06 07:25:31;;;;;;;4.43;1.35;;;;;;;;;;5014872;28;20128;-82
2021/08/06 07:27:56;;;;;;;4.28;1.17;;;;;;;;;;5020062;28;20064;-82
2021/08/06 07:30:22;;;;;;;3.97;1.20;;;;;;;;;;5042731;28;20056;-82
2021/08/06 07:32:47;;;;;;;4.72;1.20;;;;;;;;;;5009165;28;20045;-81
2021/08/06 07:35:13;;;;;;;7.18;1.25;;;;;;;;;;5031075;28;20507;-81
2021/08/06 07:37:40;;;;;;;2.75;1.30;;;;;;;;;;5005576;28;20089;-82
2021/08/06 07:40:06;;;;;;;3.88;1.30;;;;;;;;;;4999329;28;20037;-81
2021/08/06 07:42:32;;;;;;;5.13;1.35;;;;;;;;;;4978077;28;20369;-82
2021/08/06 07:44:57;;;;;;;6.90;1.65;;;;;;;;;;5002396;28;20079;-81
2021/08/06 07:47:23;;;;;;;7.93;1.25;;;;;;;;;;4997138;28;20042;-82
2021/08/06 07:49:48;;;;;;;4.70;1.55;;;;;;;;;;4997360;28;20051;-82
2021/08/06 07:52:14;;;;;;;7.30;1.50;;;;;;;;;;5013201;28;20047;-81
2021/08/06 07:54:40;;;;;;;3.83;1.17;;;;;;;;;;5007280;28;20056;-81
2021/08/06 07:57:08;;;;;;;12.02;2.10;;;;;;;;;;5012584;28;20088;-81
2021/08/06 07:59:34;;;;;;;3.92;1.40;;;;;;;;;;5021550;28;20593;-81
2021/08/06 08:01:59;;;;;;;5.65;1.75;;;;;;;;;;5030256;28;20037;-82
2021/08/06 08:04:25;;;;;;;6.30;1.98;;;;;;;;;;5032160;28;20044;-81
2021/08/06 08:06:50;;;;;;;5.70;1.30;;;;;;;;;;4984021;28;20030;-81
2021/08/06 08:09:16;;;;;;;3.80;1.15;;;;;;;;;;5006983;28;20083;-81
2021/08/06 08:11:41;;;;;;;4.03;0.90;;;;;;;;;;4995166;28;20086;-81
2021/08/06 08:14:07;;;;;;;3.85;1.10;;;;;;;;;;5006257;28;20037;-81
2021/08/06 08:16:33;;;;;;;4.78;1.13;;;;;;;;;;5032058;28;20037;-81
2021/08/06 08:18:58;;;;;;;4.13;1.02;;;;;;;;;;5014041;28;20383;-81
2021/08/06 08:21:24;;;;;;;6.20;1.58;;;;;;;;;;5013493;28;20079;-82
2021/08/06 08:23:49;;;;;;;6.43;1.88;;;;;;;;;;5001003;28;20233;-82
2021/08/06 08:26:15;;;;;;;7.60;2.58;;;;;;;;;;4999582;28;20041;-83
2021/08/06 08:28:40;;;;;;;4.60;2.00;;;;;;;;;;4977692;28;20143;-83
2021/08/06 08:31:06;;;;;;;7.40;2.30;;;;;;;;;;4996021;28;20041;-82
2021/08/06 08:33:31;;;;;;;5.18;2.13;;;;;;;;;;5013587;28;20049;-82
2021/08/06 08:35:57;;;;;;;6.03;2.42;;;;;;;;;;5010559;28;20034;-81
2021/08/06 08:38:22;;;;;;;4.38;2.00;;;;;;;;;;5016390;28;20426;-82
2021/08/06 08:40:48;;;;;;;9.50;2.58;;;;;;;;;;5014730;28;20037;-81
2021/08/06 08:43:13;;;;;;;8.45;2.33;;;;;;;;;;5008290;28;20434;-81
2021/08/06 08:45:41;;;;;;;10.73;2.22;;;;;;;;;;5008002;28;20056;-81
2021/08/06 08:48:11;;;;;;;8.07;2.20;;;;;;;;;;5008734;28;20038;-81
2021/08/06 08:50:38;;;;;;;8.98;2.38;;;;;;;;;;5032007;28;20033;-81
2021/08/06 08:53:03;;;;;;;8.50;2.17;;;;;;;;;;5022870;28;20091;-82
2021/08/06 08:55:29;;;;;;;7.28;2.53;;;;;;;;;;5037850;28;20052;-82
2021/08/06 08:57:54;;;;;;;18.45;2.95;;;;;;;;;;5008488;28;20038;-82
2021/08/06 09:00:20;;;;;;;8.02;2.10;;;;;;;;;;5013408;28;20042;-83
2021/08/06 09:02:46;;;;;;;10.20;2.53;;;;;;;;;;5030874;28;20449;-82
2021/08/06 09:05:15;;;;;;;8.30;2.17;;;;;;;;;;5018336;28;20041;-82
2021/08/06 09:07:40;;;;;;;9.38;1.95;;;;;;;;;;5022201;28;20458;-82
2021/08/06 09:10:16;;;;;;;6.45;1.75;;;;;;;;;;5019579;28;20029;-81
2021/08/06 09:13:11;;;;;;;7.82;1.95;;;;;;;;;;5027989;28;20033;-82
2021/08/06 09:15:39;;;;;;;6.75;1.60;;;;;;;;;;5002046;28;20049;-81
2021/08/06 09:18:37;;;;;;;6.07;1.30;;;;;;;;;;5049803;28;20029;-82
2021/08/06 09:21:18;;;;;;;5.85;2.05;;;;;;;;;;5013366;28;20101;-81
2021/08/06 09:23:58;;;;;;;5.65;1.42;;;;;;;;;;4994009;28;20463;-81
2021/08/06 09:26:26;;;;;;;2.78;1.30;;;;;;;;;;4998679;28;20106;-81
2021/08/06 09:29:07;;;;;;;8.52;1.77;;;;;;;;;;5016940;28;20187;-82
2021/08/06 09:31:34;;;;;;;8.00;1.70;;;;;;;;;;4998815;28;20037;-81
2021/08/06 09:34:18;;;;;;;2.75;1.27;;;;;;;;;;4982155;28;20083;-81
2021/08/06 09:37:00;;;;;;;9.55;2.40;;;;;;;;;;5029696;28;20114;-81
2021/08/06 09:39:33;;;;;;;7.93;4.60;;;;;;;;;;5014079;28;20037;-81
2021/08/06 09:41:58;;;;;;;8.30;4.78;;;;;;;;;;5025091;28;20033;-81
2021/08/06 09:44:25;;;;;;;8.95;3.92;;;;;;;;;;5014711;28;20029;-81
2021/08/06 09:46:51;;;;;;;6.85;3.63;;;;;;;;;;4982600;28;20044;-81
2021/08/06 09:49:18;;;;;;;7.28;3.80;;;;;;;;;;5031944;28;20420;-81
2021/08/06 09:51:43;;;;;;;5.28;2.70;;;;;;;;;;5015457;28;20094;-81
2021/08/06 09:54:29;;;;;;;4.68;2.60;;;;;;;;;;5005496;28;20389;-82
2021/08/06 09:57:04;;;;;;;5.72;2.22;;;;;;;;;;5033528;28;20075;-82
2021/08/06 09:59:29;;;;;;;6.68;2.58;;;;;;;;;;5031954;28;20107;-82
2021/08/06 10:02:17;;;;;;;3.40;1.63;;;;;;;;;;5017399;28;20498;-82
2021/08/06 10:04:44;;;;;;;4.75;1.80;;;;;;;;;;5025604;28;20525;-81
2021/08/06 10:07:10;;;;;;;4.90;2.30;;;;;;;;;;5017016;28;20079;-83
2021/08/06 10:09:36;;;;;;;5.68;2.53;;;;;;;;;;5011661;28;20132;-82
2021/08/06 10:12:02;;;;;;;5.18;1.88;;;;;;;;;;5030198;28;20075;-82
2021/08/06 10:14:27;;;;;;;3.63;1.45;;;;;;;;;;5024247;28;20038;-82
2021/08/06 10:16:53;;;;;;;3.85;1.60;;;;;;;;;;5015249;28;20114;-82
2021/08/06 10:19:19;;;;;;;4.03;2.20;;;;;;;;;;5011278;28;20112;-81
2021/08/06 10:21:44;;;;;;;4.13;1.10;;;;;;;;;;5013950;28;20056;-83
2021/08/06 10:24:13;;;;;;;4.30;1.30;;;;;;;;;;5014313;28;20052;-83
2021/08/06 10:26:43;;;;;;;3.67;1.10;;;;;;;;;;5031046;28;20040;-82
2021/08/06 10:29:08;;;;;;;3.40;0.98;;;;;;;;;;5034471;28;20047;-82
2021/08/06 10:31:33;;;;;;;2.03;1.00;;;;;;;;;;5005723;28;20462;-82
2021/08/06 10:34:06;;;;;;;3.88;0.90;;;;;;;;;;5013141;28;20533;-82
2021/08/06 10:36:44;;;;;;;2.67;0.88;;;;;;;;;;5020775;28;20057;-82
2021/08/06 10:39:38;;;;;;;3.10;0.93;;;;;;;;;;5033127;28;20051;-86
2021/08/06 10:42:05;;;;;;;3.40;1.27;;;;;;;;;;5032216;28;20040;-84
2021/08/06 10:44:53;;;;;;;4.30;0.75;;;;;;;;;;5017518;28;20495;-83
2021/08/06 10:47:18;;;;;;;4.30;0.90;;;;;;;;;;5024268;28;20038;-81
2021/08/06 10:49:43;;;;;;;4.57;0.85;;;;;;;;;;5031868;28;20510;-81
2021/08/06 10:52:14;;;;;;;4.35;0.80;;;;;;;;;;5032910;28;20053;-80
2021/08/06 10:54:40;;;;;;;3.65;1.00;;;;;;;;;;5013390;28;20033;-81
2021/08/06 10:57:24;;;;;;;3.30;1.20;;;;;;;;;;5031698;28;20048;-83
2021/08/06 10:59:50;;;;;;;3.75;1.48;;;;;;;;;;5034543;28;20073;-81
2021/08/06 11:02:34;;;;;;;3.75;2.38;;;;;;;;;;5020358;28;20037;-82
2021/08/06 11:05:00;;;;;;;3.85;1.85;;;;;;;;;;5028848;28;20503;-81
2021/08/06 11:07:34;;;;;;;5.18;2.25;;;;;;;;;;5014037;28;20037;-82
2021/08/06 11:10:00;;;;;;;4.68;2.17;;;;;;;;;;5030819;28;20049;-82
2021/08/06 11:12:30;;;;;;;7.65;1.58;;;;;;;;;;5030857;28;20048;-82
2021/08/06 11:14:57;;;;;;;4.82;1.80;;;;;;;;;;5030418;28;20041;-82
2021/08/06 11:17:34;;;;;;;5.85;1.90;;;;;;;;;;5014324;28;20038;-82
2021/08/06 11:20:07;;;;;;;4.78;2.15;;;;;;;;;;5013987;28;20041;-81
2021/08/06 11:22:43;;;;;;;5.25;1.88;;;;;;;;;;5030580;28;20033;-82
2021/08/06 11:25:22;;;;;;;4.90;1.58;;;;;;;;;;5014105;28;20045;-82
2021/08/06 11:27:49;;;;;;;5.85;1.90;;;;;;;;;;5015155;28;20037;-82
2021/08/06 11:30:19;;;;;;;4.13;1.90;;;;;;;;;;5014242;28;20049;-82
2021/08/06 11:32:45;;;;;;;4.63;1.70;;;;;;;;;;5014533;28;20033;-82
2021/08/06 11:35:11;;;;;;;3.35;1.92;;;;;;;;;;5029831;28;20124;-82
2021/08/06 11:37:46;;;;;;;4.63;1.70;;;;;;;;;;4997723;28;20070;-82
2021/08/06 11:40:15;;;;;;;4.85;2.47;;;;;;;;;;5030432;28;20461;-82
2021/08/06 11:42:42;;;;;;;3.10;1.70;;;;;;;;;;4998166;28;20053;-82
2021/08/06 11:45:11;;;;;;;5.20;1.73;;;;;;;;;;4997752;28;20037;-82
2021/08/06 11:47:38;;;;;;;4.95;2.40;;;;;;;;;;5013561;28;20045;-82
2021/08/06 11:50:05;;;;;;;3.58;1.92;;;;;;;;;;4997242;28;20060;-82
2021/08/06 11:52:56;;;;;;;3.65;1.48;;;;;;;;;;4997389;28;20034;-82
2021/08/06 11:55:27;;;;;;;4.80;1.63;;;;;;;;;;5011798;28;20041;-82
2021/08/06 11:57:54;;;;;;;2.85;1.50;;;;;;;;;;4997551;28;20287;-81
2021/08/06 12:00:20;;;;;;;3.33;1.95;;;;;;;;;;4981508;28;20034;-82
2021/08/06 12:02:46;;;;;;;4.65;1.73;;;;;;;;;;5013327;28;20041;-82
2021/08/06 12:05:24;;;;;;;3.25;1.60;;;;;;;;;;4997203;28;20029;-82
2021/08/06 12:07:49;;;;;;;3.60;1.50;;;;;;;;;;4997561;28;20038;-82
2021/08/06 12:10:15;;;;;;;3.70;1.35;;;;;;;;;;4997894;28;20105;-82
2021/08/06 12:12:40;;;;;;;2.08;0.98;;;;;;;;;;5013579;28;20041;-82
2021/08/06 12:15:22;;;;;;;2.13;1.10;;;;;;;;;;4981123;28;20034;-82
2021/08/06 12:17:48;;;;;;;2.58;1.15;;;;;;;;;;4997120;28;20419;-82
2021/08/06 12:20:33;;;;;;;2.85;1.10;;;;;;;;;;5013301;28;20033;-81
2021/08/06 12:22:58;;;;;;;3.30;1.17;;;;;;;;;;4997010;28;20536;-82
2021/08/06 12:25:24;;;;;;;1.80;0.85;;;;;;;;;;5013819;28;20049;-82
2021/08/06 12:27:49;;;;;;;2.17;0.88;;;;;;;;;;5017717;28;20040;-82
2021/08/06 12:30:25;;;;;;;3.35;1.10;;;;;;;;;;5017403;28;20050;-82
2021/08/06 12:32:50;;;;;;;1.90;0.82;;;;;;;;;;5016973;28;20047;-82
2021/08/06 12:35:23;;;;;;;2.72;1.10;;;;;;;;;;5000702;28;20041;-82
2021/08/06 12:37:49;;;;;;;2.20;0.70;;;;;;;;;;5017700;28;20029;-82
2021/08/06 12:40:14;;;;;;;2.10;0.80;;;;;;;;;;5017466;28;20057;-82
2021/08/06 12:42:40;;;;;;;2.10;0.90;;;;;;;;;;5016795;28;20041;-82
2021/08/06 12:45:14;;;;;;;2.58;1.20;;;;;;;;;;5000544;28;20052;-82
2021/08/06 12:47:51;;;;;;;1.55;0.60;;;;;;;;;;5033114;28;20079;-82
2021/08/06 12:50:31;;;;;;;1.85;0.73;;;;;;;;;;5016449;28;20418;-82
2021/08/06 12:53:00;;;;;;;2.22;0.73;;;;;;;;;;5002508;28;20121;-82
2021/08/06 12:55:26;;;;;;;2.30;0.93;;;;;;;;;;5033395;28;20034;-82
2021/08/06 12:57:56;;;;;;;2.58;0.70;;;;;;;;;;5000413;28;20043;-82
2021/08/06 13:00:25;;;;;;;1.40;0.80;;;;;;;;;;5016373;28;20060;-82
2021/08/06 13:03:00;;;;;;;2.08;0.80;;;;;;;;;;5032708;28;20033;-82
2021/08/06 13:05:25;;;;;;;1.05;0.50;;;;;;;;;;5033102;28;20132;-82
2021/08/06 13:07:51;;;;;;;1.90;0.68;;;;;;;;;;5000694;28;20120;-82
2021/08/06 13:10:27;;;;;;;1.42;0.50;;;;;;;;;;5000637;28;20034;-82
2021/08/06 13:12:53;;;;;;;1.42;0.60;;;;;;;;;;5000240;28;20037;-83
2021/08/06 13:15:19;;;;;;;1.20;0.60;;;;;;;;;;4999863;28;20118;-82
2021/08/06 13:17:45;;;;;;;1.90;0.50;;;;;;;;;;5000076;28;20052;-82
2021/08/06 13:20:10;;;;;;;1.10;0.40;;;;;;;;;;5032745;28;20506;-82
2021/08/06 13:22:36;;;;;;;2.05;0.45;;;;;;;;;;5016434;28;20069;-82
2021/08/06 13:25:01;;;;;;;1.13;0.47;;;;;;;;;;4980469;28;20125;-82
2021/08/06 13:27:27;;;;;;;1.75;0.60;;;;;;;;;;4996321;28;20057;-82
2021/08/06 13:29:52;;;;;;;1.80;0.38;;;;;;;;;;4996249;28;20041;-82
2021/08/06 13:32:17;;;;;;;1.92;0.60;;;;;;;;;;4996143;28;20030;-83
2021/08/06 13:34:43;;;;;;;1.25;0.40;;;;;;;;;;4980559;28;20100;-82
2021/08/06 13:37:11;;;;;;;1.63;0.50;;;;;;;;;;4996045;28;20040;-82
2021/08/06 13:39:37;;;;;;;1.45;0.40;;;;;;;;;;5017715;28;20053;-82
2021/08/06 13:42:03;;;;;;;1.85;0.50;;;;;;;;;;5034873;28;20057;-82
2021/08/06 13:44:28;;;;;;;2.28;0.47;;;;;;;;;;5000060;28;20042;-82
2021/08/06 13:46:54;;;;;;;2.38;0.50;;;;;;;;;;5004809;28;20029;-82
2021/08/06 13:49:19;;;;;;;1.38;0.30;;;;;;;;;;5003381;28;20560;-82
2021/08/06 13:51:45;;;;;;;1.63;0.57;;;;;;;;;;5004518;28;20096;-82
2021/08/06 13:54:11;;;;;;;2.05;0.50;;;;;;;;;;5034459;28;20060;-84
2021/08/06 13:56:36;;;;;;;2.38;0.63;;;;;;;;;;5032197;28;20475;-83
2021/08/06 13:59:02;;;;;;;1.50;0.70;;;;;;;;;;5021298;28;20048;-83
2021/08/06 14:01:27;;;;;;;1.92;0.40;;;;;;;;;;5016469;28;20079;-83
2021/08/06 14:03:53;;;;;;;2.38;0.40;;;;;;;;;;5036379;28;20094;-83
2021/08/06 14:06:18;;;;;;;2.58;0.30;;;;;;;;;;5017704;28;20564;-83
2021/08/06 14:08:44;;;;;;;3.47;0.40;;;;;;;;;;5028281;28;20036;-83
2021/08/06 14:11:09;;;;;;;1.73;0.50;;;;;;;;;;5015532;28;20038;-82
2021/08/06 14:13:35;;;;;;;1.92;0.90;;;;;;;;;;5020452;28;20469;-83
2021/08/06 14:16:02;;;;;;;2.40;0.60;;;;;;;;;;5018050;28;20472;-83
2021/08/06 14:18:29;;;;;;;2.22;0.55;;;;;;;;;;5006145;28;20095;-82
2021/08/06 14:20:54;;;;;;;2.17;0.60;;;;;;;;;;5001948;28;20560;-83
2021/08/06 14:23:20;;;;;;;2.30;0.68;;;;;;;;;;5021109;28;20041;-83
2021/08/06 14:25:45;;;;;;;1.85;0.50;;;;;;;;;;5015371;28;20171;-83
2021/08/06 14:28:10;;;;;;;4.18;0.57;;;;;;;;;;5014619;28;20053;-83
2021/08/06 14:30:36;;;;;;;2.53;0.68;;;;;;;;;;5025743;28;20048;-83
2021/08/06 14:33:01;;;;;;;2.35;0.52;;;;;;;;;;4998496;28;20079;-83
2021/08/06 14:35:27;;;;;;;1.85;0.50;;;;;;;;;;5009454;28;20033;-83
2021/08/06 14:37:52;;;;;;;1.70;0.45;;;;;;;;;;5017895;28;20040;-83
2021/08/06 14:40:18;;;;;;;1.40;0.38;;;;;;;;;;5015486;28;20041;-83
2021/08/06 14:42:44;;;;;;;2.25;0.50;;;;;;;;;;5030930;28;20044;-84
2021/08/06 14:45:10;;;;;;;1.95;0.50;;;;;;;;;;5031376;28;20409;-83